Airport View

Enter AWOS ICAO identifier for current METAR.

ex. KFNL

KTTD 290253Z 09017G25KT 10SM CLR 24/05 A3005 RMK AO2 SLP174 T02440050 56017

29 Sep 2020 03:38

Frequency: 135.625

Phone: 503-492-2887

Other Area AWOS: KPDX - KVUO - KCZK - KHIO

TAF KTTD 282339Z 2900/2924 09017G26KT P6SM SKC FM290700 07013G22KT P6SM SKC FM291000 10014KT P6SM SKC